Weather reports worldwide

Advertisment
Cervera de Pisuerga, Spain (8058): temperature & dewpoint: 29.06.2020 16:00:00 - 05.07.2020 16:00:00 (CEST)Cervera de Pisuerga, Spain (8058): wind speed & gusts: 29.06.2020 16:00:00 - 05.07.2020 16:00:00 (CEST)Cervera de Pisuerga, Spain (8058): wind direction: 29.06.2020 16:00:00 - 05.07.2020 16:00:00 (CEST)Cervera de Pisuerga, Spain (8058): visibility: 29.06.2020 16:00:00 - 05.07.2020 16:00:00 (CEST)Cervera de Pisuerga, Spain (8058): sunshine duration: 29.06.2020 16:00:00 - 05.07.2020 16:00:00 (CEST)Cervera de Pisuerga, Spain (8058): precipitation: 29.06.2020 16:00:00 - 05.07.2020 16:00:00 (CEST)
Date & Time tt [°C] td [°C] ff [km/h] ff [kn] fx [km/h] fx [kn] dd vv [km] sd [min] rr [mm]
05.07.2020 16:00:00 - - - - - - - - - -
05.07.2020 15:00:00 28,1 15,1 5 3 16 9 S 20 60 0,0
05.07.2020 14:00:00 26,2 13,7 5 3 20 11 ESE 20 60 -
05.07.2020 13:00:00 25,0 13,9 7 4 19 10 E 20 60 0,0
05.07.2020 12:00:00 21,4 13,6 6 3 17 9 E 20 52 0,0
05.07.2020 11:00:00 19,5 13,5 6 3 16 8 ENE 20 3 0,0
05.07.2020 10:00:00 17,3 13,7 4 2 10 5 S 20 4 0,0
05.07.2020 09:00:00 14,8 11,0 3 2 11 6 WSW 20 9 0,0
05.07.2020 08:00:00 12,6 9,6 3 2 14 7 NW 20 0 -
05.07.2020 07:00:00 12,9 9,3 4 2 18 10 NW 20 0 0,0
05.07.2020 06:00:00 12,9 9,9 6 4 18 10 NW 20 0 0,0
05.07.2020 05:00:00 12,6 9,9 6 4 14 8 NW 20 0 0,0
05.07.2020 04:00:00 12,7 9,9 4 2 17 9 NW 20 0 0,0
05.07.2020 03:00:00 13,0 10,0 3 2 17 9 W 20 0 0,0
05.07.2020 02:00:00 14,3 10,5 8 4 17 9 WNW 20 0 -
05.07.2020 01:00:00 14,9 10,9 13 7 19 10 WNW 20 0 0,0
05.07.2020 00:00:00 15,0 10,4 4 2 18 10 WSW 20 0 0,0
04.07.2020 23:00:00 16,3 10,2 10 5 20 11 NW 20 0 0,0
04.07.2020 22:00:00 17,6 10,2 11 6 21 11 NW 20 0 0,0
04.07.2020 21:00:00 20,1 11,3 8 4 19 10 N 20 50 0,0
04.07.2020 20:00:00 23,3 11,7 9 5 19 11 NNE 20 60 -
04.07.2020 19:00:00 24,5 12,4 9 5 20 11 N 20 60 0,0
04.07.2020 18:00:00 25,4 12,6 9 5 18 10 N 20 60 0,0
04.07.2020 17:00:00 26,2 10,8 5 3 17 9 NNE 20 60 0,0
04.07.2020 16:00:00 26,9 11,8 5 3 21 11 E 20 60 0,0
04.07.2020 15:00:00 25,8 10,8 11 6 22 12 ESE 20 60 0,0
04.07.2020 14:00:00 24,2 10,2 12 7 23 13 SSW 20 60 -
04.07.2020 13:00:00 21,8 5,3 9 5 19 10 WNW 20 60 0,0
04.07.2020 12:00:00 19,4 7,8 5 3 14 7 ENE 20 52 0,0
04.07.2020 11:00:00 16,2 8,0 2 1 11 6 S 20 5 0,0
04.07.2020 10:00:00 13,7 5,8 3 1 17 9 WNW 20 8 0,0
04.07.2020 09:00:00 10,5 5,6 3 2 23 12 NW 20 8 0,0
04.07.2020 08:00:00 8,0 4,3 6 4 22 12 NW 20 0 -
04.07.2020 07:00:00 5,5 4,3 11 6 22 12 WNW 20 0 0,0
04.07.2020 06:00:00 6,6 5,6 11 6 21 11 WNW 20 0 0,0
04.07.2020 05:00:00 7,3 6,4 7 4 19 10 NW 18 0 0,0
04.07.2020 04:00:00 8,3 7,4 6 3 22 12 NNW - 0 0,0
04.07.2020 03:00:00 8,7 7,8 11 6 21 11 WNW 11 0 0,0
04.07.2020 02:00:00 9,2 8,1 4 2 18 10 NW 19 0 -
04.07.2020 01:00:00 9,7 8,5 5 3 18 10 WNW 18 0 0,0
04.07.2020 00:00:00 10,8 9,4 5 3 16 9 NNW 20 0 0,0
03.07.2020 23:00:00 11,5 9,6 6 3 17 9 NNW 20 0 0,0
03.07.2020 22:00:00 13,0 9,7 6 3 14 8 NNW 20 0 0,0
03.07.2020 21:00:00 17,7 10,5 5 3 17 9 NNE 20 50 0,0
03.07.2020 20:00:00 20,4 10,8 11 6 20 11 SSE 20 60 -
03.07.2020 19:00:00 21,2 10,0 8 4 21 11 NE 20 60 0,0
03.07.2020 18:00:00 21,3 10,2 8 5 22 12 E 20 60 0,0
03.07.2020 17:00:00 21,2 10,0 8 5 21 11 SE 20 60 0,0
03.07.2020 16:00:00 20,6 10,0 10 6 20 11 SSE 20 60 0,0
03.07.2020 15:00:00 19,8 9,9 9 5 25 14 SE 20 60 0,0
03.07.2020 14:00:00 19,1 10,2 8 4 19 10 SE 20 60 -
03.07.2020 13:00:00 17,6 9,2 5 3 14 8 E 20 60 0,0
03.07.2020 12:00:00 15,2 9,3 8 4 18 10 E 20 55 0,0
03.07.2020 11:00:00 12,8 7,4 6 3 20 11 N 20 3 0,0
03.07.2020 10:00:00 12,0 7,6 7 4 19 10 NNE 20 7 0,0
03.07.2020 09:00:00 9,6 6,8 6 3 21 12 N 20 8 0,0
03.07.2020 08:00:00 7,7 6,1 13 7 23 12 WNW 20 0 -
03.07.2020 07:00:00 6,8 5,6 9 5 19 10 WNW 20 0 0,0
03.07.2020 06:00:00 5,9 4,6 6 3 16 9 W 20 0 0,0
03.07.2020 05:00:00 6,8 5,5 5 3 21 11 WNW 20 0 0,0
03.07.2020 04:00:00 7,7 5,9 8 4 22 12 NNW 20 0 0,0
03.07.2020 03:00:00 8,4 6,4 10 5 23 13 NNW 20 0 0,0
03.07.2020 02:00:00 8,2 6,5 9 5 22 12 NNW 20 0 -
03.07.2020 01:00:00 8,6 6,4 6 4 25 13 NW 20 0 0,0
03.07.2020 00:00:00 9,2 6,8 7 4 24 13 NW 20 0 0,0
02.07.2020 23:00:00 9,3 6,8 9 5 34 19 NNW 20 0 0,0
02.07.2020 22:00:00 9,6 7,1 16 9 36 19 N 20 0 0,0
02.07.2020 21:00:00 10,4 7,3 15 8 35 19 N 20 37 0,0
02.07.2020 20:00:00 12,3 8,0 14 8 36 19 N 20 60 -
02.07.2020 19:00:00 14,1 9,6 9 5 26 14 N 20 32 0,0
02.07.2020 18:00:00 13,7 8,9 14 8 26 14 NNW 20 12 0,0
02.07.2020 17:00:00 - - - - - - - - - -
02.07.2020 16:00:00 16,7 10,8 14 8 27 15 NNW 20 47 0,0
02.07.2020 15:00:00 17,5 10,4 6 3 22 12 NE 20 16 0,0
02.07.2020 14:00:00 15,5 10,6 8 5 23 13 N 20 3 -
02.07.2020 13:00:00 16,7 11,4 10 6 27 14 ESE 20 20 0,0
02.07.2020 12:00:00 16,1 11,7 9 5 24 13 SE 20 18 0,0
02.07.2020 11:00:00 15,5 11,7 9 5 19 10 ESE 20 1 0,0
02.07.2020 10:00:00 13,6 11,3 8 5 19 11 ESE 20 0 0,0
02.07.2020 09:00:00 13,1 11,3 6 4 14 7 E 20 0 0,0
02.07.2020 08:00:00 12,2 11,0 5 3 12 6 E 20 0 -
02.07.2020 07:00:00 12,1 10,9 5 3 12 6 E 20 0 0,0
02.07.2020 06:00:00 12,2 11,1 4 2 10 5 E 18 0 0,0
02.07.2020 05:00:00 12,2 11,1 5 3 11 6 ENE 18 0 0,0
02.07.2020 04:00:00 12,1 11,0 5 3 9 5 E 14 0 0,0
02.07.2020 03:00:00 12,1 10,6 4 2 7 4 E 20 0 0,0
02.07.2020 02:00:00 12,4 11,0 3 2 6 3 E 20 0 -
02.07.2020 01:00:00 12,7 10,6 2 1 10 6 ESE 20 0 0,0
02.07.2020 00:00:00 13,8 11,3 4 2 10 6 E 20 0 0,0
01.07.2020 23:00:00 13,8 11,3 3 2 14 7 SSE 20 0 0,0
01.07.2020 22:00:00 14,9 11,3 3 2 12 7 NE 20 0 0,0
01.07.2020 21:00:00 18,3 12,5 4 2 18 10 ESE 20 43 0,0
01.07.2020 20:00:00 19,9 13,2 10 6 20 11 NNW 20 58 -
01.07.2020 19:00:00 22,3 14,4 8 5 20 11 N 20 55 0,0
01.07.2020 18:00:00 24,3 15,8 10 6 24 13 NE 20 59 0,0
01.07.2020 17:00:00 25,7 16,8 10 5 22 12 NE 20 60 0,0
01.07.2020 16:00:00 26,5 17,9 7 4 24 13 ENE 20 59 0,0
01.07.2020 15:00:00 25,9 17,0 11 6 24 13 ESE 20 55 0,0
01.07.2020 14:00:00 25,2 18,2 11 6 22 12 E 20 28 -
01.07.2020 13:00:00 24,1 16,9 11 6 23 12 ESE 20 40 0,0
01.07.2020 12:00:00 21,4 16,4 12 7 22 12 E 20 46 0,0
01.07.2020 11:00:00 18,7 15,5 10 6 21 12 ESE 20 9 0,0
01.07.2020 10:00:00 16,9 14,5 6 4 13 7 SSE 20 9 0,0
01.07.2020 09:00:00 15,5 13,9 3 1 14 7 E 20 8 0,0
01.07.2020 08:00:00 13,7 12,2 5 3 16 8 NW 20 0 -
01.07.2020 07:00:00 12,6 11,2 3 2 13 7 WNW 20 0 0,0
01.07.2020 06:00:00 13,7 11,2 9 5 23 12 WNW 20 0 0,0
01.07.2020 05:00:00 14,1 11,6 10 5 19 10 WNW 20 0 0,0
01.07.2020 04:00:00 15,1 11,9 12 6 22 12 WNW 20 0 0,0
01.07.2020 03:00:00 15,0 12,5 10 5 19 10 WNW 20 0 0,0
01.07.2020 02:00:00 15,9 12,6 11 6 23 12 WNW 20 0 -
01.07.2020 01:00:00 17,5 12,8 15 8 22 12 WNW 20 0 0,0
01.07.2020 00:00:00 17,9 13,9 14 8 24 13 WNW 20 0 0,0
30.06.2020 23:00:00 18,8 14,2 14 7 23 13 W 20 0 0,0
30.06.2020 22:00:00 19,3 14,1 5 3 21 12 ENE 20 0 0,0
30.06.2020 21:00:00 20,7 13,9 8 5 18 10 N 20 3 0,0
30.06.2020 20:00:00 23,3 15,6 9 5 31 17 N 20 60 -
30.06.2020 19:00:00 28,7 11,7 5 3 27 15 W 20 60 0,0
30.06.2020 18:00:00 29,1 12,1 8 5 29 16 SW 20 57 0,0
30.06.2020 17:00:00 28,3 11,3 8 5 26 14 WSW 20 50 0,0
30.06.2020 16:00:00 28,2 15,2 7 4 27 15 SSW 20 41 0,0
30.06.2020 15:00:00 27,8 15,8 11 6 29 16 SE 20 57 0,0
30.06.2020 14:00:00 26,0 14,4 8 4 24 13 E 20 55 -
30.06.2020 13:00:00 25,2 16,0 9 5 19 11 ESE 20 60 0,0
30.06.2020 12:00:00 22,1 15,0 10 5 22 12 ESE 20 53 0,0
30.06.2020 11:00:00 19,0 14,7 10 5 17 9 S 20 9 0,0
30.06.2020 10:00:00 16,2 13,0 4 2 13 7 W 20 9 0,0
30.06.2020 09:00:00 13,1 11,7 2 1 8 5 W 20 9 0,0
30.06.2020 08:00:00 11,7 10,6 5 3 22 12 NW 20 0 -
30.06.2020 07:00:00 - - - - - - - - - -
30.06.2020 06:00:00 8,9 7,1 3 1 11 6 NNW 20 0 0,0
30.06.2020 05:00:00 10,4 8,7 6 3 16 9 E 20 0 0,0
30.06.2020 04:00:00 12,0 10,9 8 5 13 7 NW 20 0 0,0
30.06.2020 03:00:00 12,4 11,1 4 2 19 10 NNW 20 0 0,0
30.06.2020 02:00:00 13,4 11,1 10 6 16 8 WNW 20 0 -
30.06.2020 01:00:00 13,7 11,6 9 5 18 10 NW 20 0 0,0
30.06.2020 00:00:00 14,4 12,6 8 4 18 10 NW 20 0 0,0
29.06.2020 23:00:00 14,8 12,3 9 5 17 9 WNW 20 0 0,0
29.06.2020 22:00:00 16,3 12,6 7 4 12 7 NW 17 0 0,0
29.06.2020 21:00:00 20,4 13,9 6 3 16 8 N 20 48 0,0
29.06.2020 20:00:00 21,6 14,7 7 4 19 10 N 20 52 -
29.06.2020 19:00:00 23,8 16,3 5 3 18 10 NNE 20 45 0,0
29.06.2020 18:00:00 24,4 15,9 9 5 21 11 ESE 20 60 0,0
29.06.2020 17:00:00 24,3 16,0 13 7 23 12 ESE 20 60 0,0
29.06.2020 16:00:00 22,6 15,7 10 5 21 12 SSE 20 36 0,0

tt = temperature
td = dewpoint
ff = wind speed
fx = gusts
dd = wind direction
vv = visibility
sd = sunshine duration
rr = precipitation

Next stations